Time;durP1;ratioP1;P1;durP2;ratioP2;P2;SDS_P1;SDS_P2;PMS_P1;PMS_P2;Temp;Humidity;BMP_temperature;BMP_pressure;BME280_temperature;BME280_humidity;BME280_pressure;Samples;Min_cycle;Max_cycle;Signal;HPM_P1;HPM_P2
2022/11/17 00:02:51;;;;;;;;;;;;;;;11.04;74.75;98955.13;5331482;32;34938;-75
2022/11/17 00:05:53;;;;;;;;;;;;;;;11.34;72.83;98947.91;5316849;32;36424;-68
2022/11/17 00:08:55;;;;;;;;;;;;;;;11.55;72.01;98955.34;5337541;32;34963;-80
2022/11/17 00:15:23;;;;;;;;;;;;;;;11.40;71.61;98965.09;5337949;32;35434;-66
2022/11/17 00:21:45;;;;;;;;;;;;;;;10.90;74.40;98963.06;5318768;32;34846;-65
2022/11/17 00:24:48;;;;;;;;;;;;;;;10.70;74.93;98966.94;5346476;32;34700;-81
2022/11/17 00:27:49;;;;;;;;;;;;;;;11.56;71.50;98962.28;5313092;32;34500;-67
2022/11/17 00:34:13;;;;;;;;;;;;;;;11.71;71.52;98961.28;5336477;32;47408;-68
2022/11/17 00:37:15;;;;;;;;;;;;;;;11.67;71.91;98967.69;5329610;32;34840;-65
2022/11/17 00:40:17;;;;;;;;;;;;;;;11.47;72.35;98969.00;5336109;32;34844;-74
2022/11/17 00:43:19;;;;;;;;;;;;;;;11.37;72.57;98966.13;5316230;32;34379;-82
2022/11/17 00:46:21;;;;;;;;;;;;;;;11.56;71.82;98957.87;5333572;32;34657;-66
2022/11/17 00:49:26;;;;;;;;;;;;;;;12.04;70.50;98952.09;5324739;32;34995;-74
2022/11/17 00:52:28;;;;;;;;;;;;;;;11.55;71.94;98944.81;5330517;32;35064;-65
2022/11/17 00:55:30;;;;;;;;;;;;;;;11.96;70.06;98947.34;5331614;32;34247;-66
2022/11/17 00:58:34;;;;;;;;;;;;;;;11.10;72.07;98949.50;5335412;32;35037;-80
2022/11/17 01:01:36;;;;;;;;;;;;;;;11.12;72.60;98948.44;5348824;32;45161;-65
2022/11/17 01:04:38;;;;;;;;;;;;;;;11.38;72.03;98952.00;5320363;32;35525;-65
2022/11/17 01:07:40;;;;;;;;;;;;;;;11.38;71.22;98945.91;5315403;32;35620;-81
2022/11/17 01:10:42;;;;;;;;;;;;;;;11.60;69.61;98942.75;5332571;32;35460;-67
2022/11/17 01:13:44;;;;;;;;;;;;;;;11.48;69.83;98940.91;5329765;32;34921;-79
2022/11/17 01:16:46;;;;;;;;;;;;;;;10.86;72.92;98920.34;5336786;32;37865;-80
2022/11/17 01:19:48;;;;;;;;;;;;;;;10.06;76.16;98918.31;5329427;32;35357;-80
2022/11/17 01:22:50;;;;;;;;;;;;;;;11.27;72.07;98917.69;5343094;32;34907;-81
2022/11/17 01:25:51;;;;;;;;;;;;;;;10.62;73.73;98914.00;5331549;32;34194;-73
2022/11/17 01:28:54;;;;;;;;;;;;;;;11.08;71.94;98906.69;5347628;32;36540;-66
2022/11/17 01:31:56;;;;;;;;;;;;;;;11.74;69.60;98908.44;5316194;32;34637;-80
2022/11/17 01:34:57;;;;;;;;;;;;;;;11.29;70.82;98910.53;5322494;32;35582;-81
2022/11/17 01:37:59;;;;;;;;;;;;;;;11.60;70.29;98912.00;5324819;32;34359;-66
2022/11/17 01:41:02;;;;;;;;;;;;;;;11.38;71.36;98896.78;5320028;32;35712;-79
2022/11/17 01:44:23;;;;;;;;;;;;;;;10.64;74.25;98912.13;5315408;32;35671;-82
2022/11/17 01:47:27;;;;;;;;;;;;;;;11.39;72.22;98911.59;5315593;32;34485;-66
2022/11/17 01:50:36;;;;;;;;;;;;;;;10.76;74.40;98912.22;5330098;32;34334;-80
2022/11/17 01:53:38;;;;;;;;;;;;;;;10.84;73.57;98912.56;5305479;32;45281;-81
2022/11/17 01:56:41;;;;;;;;;;;;;;;11.62;71.07;98906.62;5315346;32;34461;-80
2022/11/17 01:59:48;;;;;;;;;;;;;;;11.12;72.93;98922.16;5329644;32;35320;-66
2022/11/17 02:02:49;;;;;;;;;;;;;;;11.23;73.47;98924.09;5317933;32;34388;-66
2022/11/17 02:06:15;;;;;;;;;;;;;;;11.48;71.59;98925.13;5307713;32;35344;-64
2022/11/17 02:09:17;;;;;;;;;;;;;;;12.04;68.86;98933.66;5327506;32;34425;-73
2022/11/17 02:12:19;;;;;;;;;;;;;;;10.96;73.08;98931.12;5332109;32;35406;-67
2022/11/17 02:15:21;;;;;;;;;;;;;;;11.00;71.14;98935.22;5334453;32;34446;-67
2022/11/17 02:18:23;;;;;;;;;;;;;;;10.55;74.44;98940.66;5303876;32;35061;-83
2022/11/17 02:21:32;;;;;;;;;;;;;;;10.17;74.37;98934.25;5321439;32;35061;-81
2022/11/17 02:24:40;;;;;;;;;;;;;;;9.86;76.52;98930.84;5320257;32;35474;-82
2022/11/17 02:27:48;;;;;;;;;;;;;;;9.76;76.30;98934.94;5341072;32;44634;-66
2022/11/17 02:31:09;;;;;;;;;;;;;;;10.25;74.61;98927.63;5320068;32;35249;-72
2022/11/17 02:34:15;;;;;;;;;;;;;;;10.73;71.26;98920.28;5328506;32;44903;-65
2022/11/17 02:37:28;;;;;;;;;;;;;;;11.09;70.01;98924.16;5334637;32;35038;-73
2022/11/17 02:40:31;;;;;;;;;;;;;;;10.62;72.19;98919.25;5324313;32;35214;-65
2022/11/17 02:46:57;;;;;;;;;;;;;;;10.33;73.37;98905.31;5332747;32;36004;-65
2022/11/17 02:50:00;;;;;;;;;;;;;;;10.37;72.43;98910.28;5334775;32;34685;-66
2022/11/17 02:53:02;;;;;;;;;;;;;;;10.97;70.68;98902.09;5342842;32;35283;-80
2022/11/17 02:56:04;;;;;;;;;;;;;;;11.28;69.93;98903.59;5320383;32;35170;-82
2022/11/17 02:59:06;;;;;;;;;;;;;;;10.31;72.64;98897.53;5345155;32;44877;-65
2022/11/17 03:02:11;;;;;;;;;;;;;;;9.98;74.50;98889.88;5314579;32;35428;-81
2022/11/17 03:05:26;;;;;;;;;;;;;;;10.38;73.12;98896.22;5311601;32;35198;-82
2022/11/17 03:08:31;;;;;;;;;;;;;;;11.13;69.67;98901.94;5313499;32;35092;-80
2022/11/17 03:11:38;;;;;;;;;;;;;;;10.49;72.54;98909.50;5313256;32;34542;-65
2022/11/17 03:14:40;;;;;;;;;;;;;;;9.87;74.83;98906.28;5346406;32;44453;-81
2022/11/17 03:17:45;;;;;;;;;;;;;;;9.47;77.21;98881.56;5319626;32;34780;-83
2022/11/17 03:20:53;;;;;;;;;;;;;;;9.39;78.32;98881.16;5325637;32;35904;-66
2022/11/17 03:23:59;;;;;;;;;;;;;;;9.83;77.22;98864.56;5319257;32;35038;-81
2022/11/17 03:27:09;;;;;;;;;;;;;;;10.37;74.28;98873.53;5311454;32;34606;-81
2022/11/17 03:30:11;;;;;;;;;;;;;;;10.34;73.41;98881.56;5349241;32;45629;-81
2022/11/17 03:33:14;;;;;;;;;;;;;;;9.50;78.42;98863.00;5332776;32;35059;-81
2022/11/17 03:36:18;;;;;;;;;;;;;;;9.08;80.67;98867.19;5340557;32;34830;-81
2022/11/17 03:39:23;;;;;;;;;;;;;;;9.39;78.61;98878.53;5316108;32;34760;-64
2022/11/17 03:42:26;;;;;;;;;;;;;;;10.15;75.69;98871.31;5317590;32;34733;-65
2022/11/17 03:45:38;;;;;;;;;;;;;;;9.39;78.31;98889.84;5332507;32;35403;-81
2022/11/17 03:48:42;;;;;;;;;;;;;;;9.61;78.33;98894.72;5323177;32;44735;-80
2022/11/17 03:51:44;;;;;;;;;;;;;;;10.13;75.20;98901.25;5333537;32;35325;-65
2022/11/17 03:54:46;;;;;;;;;;;;;;;9.88;76.59;98915.84;5325217;32;34382;-65
2022/11/17 03:57:50;;;;;;;;;;;;;;;10.14;74.87;98916.06;5331234;32;35120;-80
2022/11/17 04:00:52;;;;;;;;;;;;;;;10.21;75.25;98925.25;5318620;32;35013;-74
2022/11/17 04:03:54;;;;;;;;;;;;;;;9.32;78.28;98927.00;5326671;32;35506;-66
2022/11/17 04:06:56;;;;;;;;;;;;;;;8.97;80.10;98939.50;5321387;32;35077;-80
2022/11/17 04:09:58;;;;;;;;;;;;;;;9.42;78.27;98939.50;5332338;32;34631;-65
2022/11/17 04:16:20;;;;;;;;;;;;;;;9.83;77.06;98932.78;5320338;32;35175;-65
2022/11/17 04:19:21;;;;;;;;;;;;;;;9.88;76.91;98933.37;5327142;32;35769;-81
2022/11/17 04:22:23;;;;;;;;;;;;;;;10.53;74.35;98926.78;5332780;32;34198;-80
2022/11/17 04:28:35;;;;;;;;;;;;;;;10.26;74.86;98918.81;5331655;32;35592;-65
2022/11/17 04:28:48;;;;;;;;;;;;;;;9.77;77.47;98924.34;5349006;32;35023;-70
2022/11/17 04:31:50;;;;;;;;;;;;;;;10.05;75.00;98917.47;5333268;32;35682;-67
2022/11/17 04:34:52;;;;;;;;;;;;;;;10.80;72.89;98915.47;5336452;32;34737;-66
2022/11/17 04:37:53;;;;;;;;;;;;;;;10.81;70.77;98918.00;5298643;32;35015;-65
2022/11/17 04:44:36;;;;;;;;;;;;;;;10.99;69.94;98915.16;5349645;32;34838;-80
2022/11/17 04:47:38;;;;;;;;;;;;;;;9.50;75.56;98924.19;5326104;32;35471;-81
2022/11/17 04:50:40;;;;;;;;;;;;;;;9.56;74.63;98922.97;5335050;32;34848;-65
2022/11/17 04:53:42;;;;;;;;;;;;;;;9.77;72.19;98929.59;5321134;32;35514;-80
2022/11/17 04:56:44;;;;;;;;;;;;;;;10.21;72.27;98933.97;5307153;32;35341;-64
2022/11/17 04:59:46;;;;;;;;;;;;;;;9.98;72.75;98955.50;5350251;32;34648;-65
2022/11/17 05:02:48;;;;;;;;;;;;;;;9.40;74.21;98958.88;5333403;32;34738;-81
2022/11/17 05:05:49;;;;;;;;;;;;;;;8.81;77.82;98957.81;5315691;32;34720;-65
2022/11/17 05:08:54;;;;;;;;;;;;;;;8.97;77.70;98950.81;5312015;32;35760;-66
2022/11/17 05:17:03;;;;;;;;;;;;;;;9.10;77.64;98959.69;5335512;32;34867;-66
2022/11/17 05:18:39;;;;;;;;;;;;;;;9.07;78.35;98959.84;5326994;32;45453;-81
2022/11/17 05:21:40;;;;;;;;;;;;;;;9.44;76.12;98955.16;5334279;32;35084;-80
2022/11/17 05:24:42;;;;;;;;;;;;;;;9.69;76.32;98952.81;5317700;32;34844;-81
2022/11/17 05:27:44;;;;;;;;;;;;;;;9.70;75.19;98951.88;5341008;32;35009;-80
2022/11/17 05:30:46;;;;;;;;;;;;;;;9.10;77.44;98961.47;5316140;32;35006;-66
2022/11/17 05:33:48;;;;;;;;;;;;;;;9.81;74.90;98959.13;5333009;32;35199;-66
2022/11/17 05:36:50;;;;;;;;;;;;;;;10.38;72.61;98955.78;5345215;32;35151;-65
2022/11/17 05:39:51;;;;;;;;;;;;;;;10.19;73.12;98962.09;5323307;32;35060;-65
2022/11/17 05:42:53;;;;;;;;;;;;;;;10.07;73.20;98952.34;5332763;32;36275;-65
2022/11/17 05:45:57;;;;;;;;;;;;;;;9.47;74.15;98949.75;5325796;32;34137;-65
2022/11/17 05:48:59;;;;;;;;;;;;;;;9.46;76.03;98950.66;5329346;32;34440;-80
2022/11/17 05:52:01;;;;;;;;;;;;;;;10.10;72.81;98960.00;5315370;32;35335;-66
2022/11/17 05:55:03;;;;;;;;;;;;;;;10.45;71.72;98965.81;5312448;32;35013;-65
2022/11/17 05:58:09;;;;;;;;;;;;;;;9.62;74.69;98967.22;5329915;32;44081;-66
2022/11/17 06:01:12;;;;;;;;;;;;;;;10.74;70.67;98966.63;5316180;32;35537;-81
2022/11/17 06:04:14;;;;;;;;;;;;;;;10.80;69.31;98963.63;5340727;32;35402;-80
2022/11/17 06:07:16;;;;;;;;;;;;;;;10.88;69.07;98975.44;5309956;32;34561;-66
2022/11/17 06:10:19;;;;;;;;;;;;;;;10.59;70.64;98980.72;5343604;32;34805;-80
2022/11/17 06:13:24;;;;;;;;;;;;;;;10.53;70.69;98975.84;5315468;32;34848;-75
2022/11/17 06:16:27;;;;;;;;;;;;;;;9.96;72.13;98983.62;5312928;32;35005;-65
2022/11/17 06:19:33;;;;;;;;;;;;;;;10.23;72.32;98989.88;5328295;32;34274;-76
2022/11/17 06:22:35;;;;;;;;;;;;;;;10.30;72.54;98980.72;5305920;32;46051;-67
2022/11/17 06:25:37;;;;;;;;;;;;;;;10.53;71.81;98978.47;5324038;32;34899;-66
2022/11/17 06:28:39;;;;;;;;;;;;;;;9.96;73.01;98986.25;5312608;32;34499;-66
2022/11/17 06:31:41;;;;;;;;;;;;;;;10.37;72.97;98993.47;5324693;32;35595;-66
2022/11/17 06:34:44;;;;;;;;;;;;;;;10.48;71.70;98980.53;5326472;32;34843;-82
2022/11/17 06:37:52;;;;;;;;;;;;;;;11.01;69.89;98986.87;5317062;32;35454;-66
2022/11/17 06:40:54;;;;;;;;;;;;;;;11.12;68.06;98973.88;5342791;32;34905;-66
2022/11/17 06:43:56;;;;;;;;;;;;;;;10.90;68.87;98981.47;5327467;32;34283;-66
2022/11/17 06:46:58;;;;;;;;;;;;;;;11.20;68.10;98986.53;5328451;32;35770;-83
2022/11/17 06:50:00;;;;;;;;;;;;;;;11.05;68.90;98991.00;5313973;32;34518;-79
2022/11/17 06:53:03;;;;;;;;;;;;;;;10.34;71.11;98991.03;5315717;32;34277;-66
2022/11/17 06:56:06;;;;;;;;;;;;;;;9.55;74.54;98997.34;5322971;32;37098;-69
2022/11/17 06:59:10;;;;;;;;;;;;;;;11.16;69.69;98998.22;5317004;32;35890;-66
2022/11/17 07:02:12;;;;;;;;;;;;;;;11.17;68.44;99006.00;5341745;32;35520;-66
2022/11/17 07:05:14;;;;;;;;;;;;;;;11.55;66.10;98995.66;5304397;32;34356;-77
2022/11/17 07:08:17;;;;;;;;;;;;;;;11.79;65.79;99000.28;5323577;32;34773;-66
2022/11/17 07:11:19;;;;;;;;;;;;;;;10.70;68.77;98995.84;5328485;32;35336;-66
2022/11/17 07:14:21;;;;;;;;;;;;;;;11.53;67.74;98999.34;5325787;32;35711;-65
2022/11/17 07:17:24;;;;;;;;;;;;;;;12.15;63.86;98992.56;5337199;32;34137;-66
2022/11/17 07:20:26;;;;;;;;;;;;;;;12.24;63.14;98999.00;5333447;32;35600;-86
2022/11/17 07:23:28;;;;;;;;;;;;;;;11.05;66.79;98994.47;5341335;32;35381;-83
2022/11/17 07:26:30;;;;;;;;;;;;;;;10.98;68.10;98997.59;5325476;32;36396;-74
2022/11/17 07:29:32;;;;;;;;;;;;;;;11.65;66.73;99002.00;5338086;32;35506;-71
2022/11/17 07:32:34;;;;;;;;;;;;;;;11.50;65.27;99010.87;5326909;32;34797;-68
2022/11/17 07:35:36;;;;;;;;;;;;;;;12.19;63.27;98999.31;5318753;32;44607;-74
2022/11/17 07:38:38;;;;;;;;;;;;;;;12.57;61.95;98985.31;5328935;32;34170;-72
2022/11/17 07:41:41;;;;;;;;;;;;;;;13.00;60.14;98991.03;5309766;32;34319;-73
2022/11/17 07:44:43;;;;;;;;;;;;;;;13.10;59.49;98985.13;5336160;32;32964;-77
2022/11/17 07:47:45;;;;;;;;;;;;;;;12.99;59.65;98991.97;5307312;32;35644;-74
2022/11/17 07:50:47;;;;;;;;;;;;;;;11.73;63.73;98996.25;5328966;32;34891;-71
2022/11/17 07:53:49;;;;;;;;;;;;;;;11.39;66.43;98997.56;5325977;32;34819;-76
2022/11/17 07:56:51;;;;;;;;;;;;;;;10.44;68.35;99003.53;5313164;32;35011;-72
2022/11/17 07:59:53;;;;;;;;;;;;;;;10.63;68.01;99000.63;5333844;32;33065;-73
2022/11/17 08:02:58;;;;;;;;;;;;;;;11.04;66.83;99007.72;5326866;32;34445;-73
2022/11/17 08:06:01;;;;;;;;;;;;;;;10.68;67.57;98998.53;5306505;32;34409;-74
2022/11/17 08:09:05;;;;;;;;;;;;;;;11.04;67.21;98999.84;5302224;32;34633;-72
2022/11/17 08:12:07;;;;;;;;;;;;;;;11.22;66.86;99003.09;5333326;32;44406;-74
2022/11/17 08:15:09;;;;;;;;;;;;;;;11.61;65.68;99004.94;5327936;32;35094;-80
2022/11/17 08:18:12;;;;;;;;;;;;;;;10.60;68.23;98998.19;5322817;32;35119;-67
2022/11/17 08:21:14;;;;;;;;;;;;;;;11.04;67.21;99020.88;5333900;32;35599;-67
2022/11/17 08:24:16;;;;;;;;;;;;;;;11.04;67.07;99018.25;5314988;32;34222;-67
2022/11/17 08:27:18;;;;;;;;;;;;;;;11.68;64.33;99024.66;5332388;32;34437;-68
2022/11/17 08:30:21;;;;;;;;;;;;;;;11.52;65.40;99021.31;5322970;32;34444;-78
2022/11/17 08:33:22;;;;;;;;;;;;;;;12.24;62.40;99021.88;5325071;32;34038;-70
2022/11/17 08:36:24;;;;;;;;;;;;;;;11.78;64.18;99025.72;5325620;32;34619;-69
2022/11/17 08:39:27;;;;;;;;;;;;;;;11.59;64.66;99033.13;5326107;32;34145;-68
2022/11/17 08:42:29;;;;;;;;;;;;;;;11.64;64.98;99029.25;5336022;32;34156;-78
2022/11/17 08:45:31;;;;;;;;;;;;;;;11.54;64.89;99037.88;5326753;32;34100;-67
2022/11/17 08:48:33;;;;;;;;;;;;;;;11.70;64.50;99037.69;5336937;32;35221;-80
2022/11/17 08:51:35;;;;;;;;;;;;;;;12.39;62.94;99031.38;5312127;32;45163;-76
2022/11/17 08:54:37;;;;;;;;;;;;;;;12.76;61.17;99026.22;5333178;32;34341;-79
2022/11/17 08:57:39;;;;;;;;;;;;;;;12.80;60.63;99041.69;5316484;32;34205;-75
2022/11/17 09:00:41;;;;;;;;;;;;;;;11.87;63.34;99059.38;5320546;32;34717;-74
2022/11/17 09:03:44;;;;;;;;;;;;;;;12.28;61.58;99062.84;5331904;32;34246;-76
2022/11/17 09:06:46;;;;;;;;;;;;;;;11.69;64.11;99054.44;5303541;32;34121;-76
2022/11/17 09:09:48;;;;;;;;;;;;;;;12.69;60.35;99042.44;5331884;32;35578;-76
2022/11/17 09:12:53;;;;;;;;;;;;;;;12.05;62.26;99056.50;5327483;32;34130;-76
2022/11/17 09:15:59;;;;;;;;;;;;;;;12.43;60.18;99060.03;5325926;32;35152;-76
2022/11/17 09:19:01;;;;;;;;;;;;;;;12.90;59.19;99058.56;5325904;32;35594;-76
2022/11/17 09:22:04;;;;;;;;;;;;;;;12.96;58.51;99060.78;5324018;32;33728;-75
2022/11/17 09:25:06;;;;;;;;;;;;;;;12.81;58.40;99061.81;5328820;32;44393;-69
2022/11/17 09:28:14;;;;;;;;;;;;;;;12.52;60.17;99077.00;5314577;32;35915;-73
2022/11/17 09:31:17;;;;;;;;;;;;;;;12.05;60.75;99078.41;5342116;32;34359;-77
2022/11/17 09:34:19;;;;;;;;;;;;;;;11.79;62.26;99080.09;5327161;32;35419;-74
2022/11/17 09:37:25;;;;;;;;;;;;;;;12.36;61.22;99060.53;5323262;32;34244;-73
2022/11/17 09:40:27;;;;;;;;;;;;;;;13.02;57.92;99059.50;5341640;32;35425;-73
2022/11/17 09:43:36;;;;;;;;;;;;;;;11.58;62.82;99065.66;5333561;32;44652;-76
2022/11/17 09:46:57;;;;;;;;;;;;;;;12.06;61.71;99073.97;5337555;32;35456;-79
2022/11/17 09:50:02;;;;;;;;;;;;;;;12.55;60.67;99062.78;5315241;32;35618;-85
2022/11/17 09:53:04;;;;;;;;;;;;;;;12.39;60.47;99045.38;5332408;32;35579;-81
2022/11/17 09:56:06;;;;;;;;;;;;;;;12.16;61.67;99046.91;5318623;32;45054;-73
2022/11/17 09:59:11;;;;;;;;;;;;;;;12.34;60.75;99042.22;5333092;32;34170;-77
2022/11/17 10:02:13;;;;;;;;;;;;;;;12.09;60.78;99039.53;5330634;32;34833;-80
2022/11/17 10:05:19;;;;;;;;;;;;;;;11.60;62.78;99034.84;5320929;32;34353;-75
2022/11/17 10:08:34;;;;;;;;;;;;;;;13.64;57.54;99042.78;5335988;32;33293;-75
2022/11/17 10:11:40;;;;;;;;;;;;;;;14.23;54.23;99029.59;5315051;32;44532;-73
2022/11/17 10:14:41;;;;;;;;;;;;;;;12.55;58.48;99046.97;5326746;32;34187;-83
2022/11/17 10:17:43;;;;;;;;;;;;;;;13.52;56.16;99037.47;5337791;32;34290;-81
2022/11/17 10:20:46;;;;;;;;;;;;;;;12.95;57.71;99045.91;5326924;32;34289;-81
2022/11/17 10:23:54;;;;;;;;;;;;;;;12.87;57.89;99042.94;5336247;32;35405;-76
2022/11/17 10:26:56;;;;;;;;;;;;;;;13.22;56.69;99044.94;5321455;32;34430;-86
2022/11/17 10:29:59;;;;;;;;;;;;;;;12.97;56.86;99037.88;5342632;32;34132;-84
2022/11/17 10:33:01;;;;;;;;;;;;;;;13.60;55.35;99038.72;5336049;32;35987;-80
2022/11/17 10:36:13;;;;;;;;;;;;;;;13.96;54.35;99037.78;5306960;32;35841;-79
2022/11/17 10:39:31;;;;;;;;;;;;;;;13.81;54.11;99047.69;5331121;32;44365;-74
2022/11/17 10:42:33;;;;;;;;;;;;;;;13.11;56.74;99040.37;5323359;32;34328;-81
2022/11/17 10:45:35;;;;;;;;;;;;;;;12.29;60.02;99054.00;5331374;32;44704;-77
2022/11/17 10:48:38;;;;;;;;;;;;;;;13.03;57.62;99053.28;5316775;32;33030;-82
2022/11/17 10:51:40;;;;;;;;;;;;;;;13.61;56.23;99043.88;5326394;32;34219;-84
2022/11/17 10:54:42;;;;;;;;;;;;;;;13.08;57.00;99051.16;5330581;32;34262;-77
2022/11/17 10:57:45;;;;;;;;;;;;;;;12.72;58.19;99050.13;5326938;32;35415;-80
2022/11/17 11:00:50;;;;;;;;;;;;;;;13.94;54.75;99055.56;5329624;32;34237;-77
2022/11/17 11:03:53;;;;;;;;;;;;;;;12.04;60.20;99067.94;5331578;32;34292;-67
2022/11/17 11:07:07;;;;;;;;;;;;;;;13.16;57.88;99053.25;5318164;32;34367;-66
2022/11/17 11:10:09;;;;;;;;;;;;;;;13.38;57.05;99061.34;5319749;32;44563;-67
2022/11/17 11:13:23;;;;;;;;;;;;;;;13.43;57.16;99047.84;5304317;32;34516;-69
2022/11/17 11:16:25;;;;;;;;;;;;;;;13.77;55.12;99056.78;5325944;32;35613;-65
2022/11/17 11:19:27;;;;;;;;;;;;;;;14.18;54.50;99048.44;5315415;32;35567;-65
2022/11/17 11:22:59;;;;;;;;;;;;;;;13.06;57.03;99049.56;5327542;32;34163;-64
2022/11/17 11:26:11;;;;;;;;;;;;;;;13.76;55.98;99050.66;5309248;32;33437;-68
2022/11/17 11:29:25;;;;;;;;;;;;;;;14.34;53.00;99038.38;5320514;32;44515;-65
2022/11/17 11:32:34;;;;;;;;;;;;;;;13.33;56.70;99047.66;5318419;32;34885;-68
2022/11/17 11:35:56;;;;;;;;;;;;;;;13.62;55.28;99052.62;5320234;32;44654;-83
2022/11/17 11:39:17;;;;;;;;;;;;;;;13.34;56.77;99057.28;5320909;32;34253;-81
2022/11/17 11:42:19;;;;;;;;;;;;;;;14.21;54.02;99052.66;5338068;32;35619;-72
2022/11/17 11:45:23;;;;;;;;;;;;;;;14.29;53.59;99050.25;5332294;32;34033;-78
2022/11/17 11:48:31;;;;;;;;;;;;;;;14.19;53.74;99052.78;5338535;32;37120;-79
2022/11/17 11:51:33;;;;;;;;;;;;;;;15.11;51.26;99045.72;5328565;32;34684;-85
2022/11/17 11:54:38;;;;;;;;;;;;;;;14.05;53.74;99045.03;5326858;32;44709;-67
2022/11/17 11:57:43;;;;;;;;;;;;;;;13.75;55.16;99050.78;5313730;32;34239;-64
2022/11/17 12:00:46;;;;;;;;;;;;;;;14.27;53.65;99041.63;5321096;32;34171;-64
2022/11/17 12:04:08;;;;;;;;;;;;;;;13.30;55.65;99045.22;5322151;32;34254;-63
2022/11/17 12:07:16;;;;;;;;;;;;;;;14.43;53.15;99039.50;5268553;32;46085;-64
2022/11/17 12:10:37;;;;;;;;;;;;;;;13.39;55.99;99046.34;5337365;32;34548;-64
2022/11/17 12:13:39;;;;;;;;;;;;;;;13.24;56.28;99049.16;5333778;32;44603;-63
2022/11/17 12:16:50;;;;;;;;;;;;;;;13.90;54.34;99051.44;5320928;32;34947;-63
2022/11/17 12:19:54;;;;;;;;;;;;;;;13.91;54.94;99055.75;5337157;32;35402;-65
2022/11/17 12:23:05;;;;;;;;;;;;;;;14.15;53.75;99061.03;5329620;32;34290;-66
2022/11/17 12:26:07;;;;;;;;;;;;;;;14.77;52.35;99048.34;5344183;32;44427;-64
2022/11/17 12:29:18;;;;;;;;;;;;;;;13.45;55.07;99044.12;5315526;32;36382;-64
2022/11/17 12:32:56;;;;;;;;;;;;;;;14.13;53.37;99047.09;5327142;32;36097;-62
2022/11/17 12:36:21;;;;;;;;;;;;;;;13.41;55.78;99060.31;5277055;32;34308;-63
2022/11/17 12:39:49;;;;;;;;;;;;;;;14.44;52.22;99051.75;5318316;32;35605;-64
2022/11/17 12:43:30;;;;;;;;;;;;;;;14.31;52.81;99054.50;5327199;32;34717;-63
2022/11/17 12:46:32;;;;;;;;;;;;;;;14.58;52.70;99056.03;5268868;33;34879;-63
2022/11/17 12:49:37;;;;;;;;;;;;;;;14.49;52.58;99054.94;5260374;33;34228;-64
2022/11/17 12:52:42;;;;;;;;;;;;;;;16.02;48.35;99050.72;5329951;32;44514;-66
2022/11/17 12:55:44;;;;;;;;;;;;;;;16.60;46.01;99044.97;5319251;32;36047;-64
2022/11/17 12:59:04;;;;;;;;;;;;;;;15.98;47.36;99055.44;5323862;32;36088;-63
2022/11/17 13:02:16;;;;;;;;;;;;;;;15.40;49.27;99048.72;5325191;32;44479;-63
2022/11/17 13:05:19;;;;;;;;;;;;;;;16.84;46.13;99047.38;5312444;32;35129;-63
2022/11/17 13:08:22;;;;;;;;;;;;;;;16.91;44.52;99041.41;5330289;32;35322;-64
2022/11/17 13:11:26;;;;;;;;;;;;;;;17.20;43.65;99040.72;5327226;32;34606;-67
2022/11/17 13:14:29;;;;;;;;;;;;;;;17.09;44.70;99052.25;5335411;32;33000;-62
2022/11/17 13:17:41;;;;;;;;;;;;;;;18.71;40.00;99047.41;5333967;32;35401;-64
2022/11/17 13:20:46;;;;;;;;;;;;;;;16.53;45.08;99057.94;5329056;32;35419;-65
2022/11/17 13:23:48;;;;;;;;;;;;;;;15.77;46.94;99067.78;5344301;32;35481;-63
2022/11/17 13:26:56;;;;;;;;;;;;;;;15.85;47.55;99069.81;5324841;32;35105;-65
2022/11/17 13:30:22;;;;;;;;;;;;;;;16.17;46.11;99065.34;5335340;32;34808;-63
2022/11/17 13:33:24;;;;;;;;;;;;;;;16.66;44.93;99063.87;5303483;32;35771;-64
2022/11/17 13:36:26;;;;;;;;;;;;;;;16.43;45.11;99073.78;5315475;32;34256;-63
2022/11/17 13:39:28;;;;;;;;;;;;;;;13.91;52.08;99083.03;5328413;32;34371;-64
2022/11/17 13:42:30;;;;;;;;;;;;;;;14.19;51.07;99100.34;5312183;32;34962;-64
2022/11/17 13:45:32;;;;;;;;;;;;;;;13.48;53.75;99095.88;5331936;32;34351;-64
2022/11/17 13:48:35;;;;;;;;;;;;;;;13.27;54.63;99090.31;5318609;32;35505;-63
2022/11/17 13:51:37;;;;;;;;;;;;;;;13.56;54.17;99090.88;5334887;32;44717;-64
2022/11/17 13:54:42;;;;;;;;;;;;;;;13.50;54.39;99099.22;5340382;32;35648;-64
2022/11/17 13:58:03;;;;;;;;;;;;;;;13.79;53.62;99092.69;5320920;32;33389;-64
2022/11/17 14:01:05;;;;;;;;;;;;;;;13.08;56.10;99085.47;5342036;32;43798;-64
2022/11/17 14:04:12;;;;;;;;;;;;;;;13.97;53.93;99081.72;5329373;32;34364;-61
2022/11/17 14:07:28;;;;;;;;;;;;;;;13.12;56.41;99076.38;5298263;32;34442;-63
2022/11/17 14:10:33;;;;;;;;;;;;;;;13.77;54.92;99080.53;5327677;32;35212;-65
2022/11/17 14:13:41;;;;;;;;;;;;;;;13.86;54.40;99090.47;5321436;32;36475;-64
2022/11/17 14:16:43;;;;;;;;;;;;;;;14.27;52.55;99087.37;5337130;32;46513;-65
2022/11/17 14:19:45;;;;;;;;;;;;;;;14.42;52.56;99087.19;5328553;32;35545;-62
2022/11/17 14:23:07;;;;;;;;;;;;;;;14.32;53.06;99076.47;5343339;32;36260;-64
2022/11/17 14:26:19;;;;;;;;;;;;;;;14.93;51.29;99068.31;5324664;32;44464;-65
2022/11/17 14:29:21;;;;;;;;;;;;;;;14.51;52.16;99068.88;5328888;32;35940;-66
2022/11/17 14:32:23;;;;;;;;;;;;;;;14.48;52.43;99065.59;5334152;32;34600;-66
2022/11/17 14:35:25;;;;;;;;;;;;;;;14.12;54.01;99069.19;5316443;32;33936;-66
2022/11/17 14:38:27;;;;;;;;;;;;;;;14.31;53.70;99067.72;5343089;32;34492;-65
2022/11/17 14:41:31;;;;;;;;;;;;;;;15.05;51.80;99068.19;5324394;32;36035;-65
2022/11/17 14:44:33;;;;;;;;;;;;;;;15.06;51.53;99069.88;5328782;32;34489;-68
2022/11/17 14:47:35;;;;;;;;;;;;;;;15.04;51.62;99070.97;5325230;32;36726;-69
2022/11/17 14:50:37;;;;;;;;;;;;;;;14.99;51.82;99094.31;5310489;32;34517;-69
2022/11/17 14:53:39;;;;;;;;;;;;;;;14.25;53.53;99091.94;5325249;32;34347;-69
2022/11/17 14:56:42;;;;;;;;;;;;;;;13.94;54.25;99087.25;5314918;32;32813;-69
2022/11/17 14:59:45;;;;;;;;;;;;;;;13.82;55.17;99088.97;5326779;32;34755;-68
2022/11/17 15:02:47;;;;;;;;;;;;;;;14.01;54.88;99086.69;5308796;32;34602;-67
2022/11/17 15:05:49;;;;;;;;;;;;;;;13.92;55.16;99084.72;5289410;32;34383;-70
2022/11/17 15:08:58;;;;;;;;;;;;;;;14.03;54.51;99079.47;5314199;32;34293;-70
2022/11/17 15:12:00;;;;;;;;;;;;;;;13.28;56.92;99078.81;5314099;32;34220;-70
2022/11/17 15:15:03;;;;;;;;;;;;;;;13.82;56.03;99073.13;5329614;32;34796;-69
2022/11/17 15:18:06;;;;;;;;;;;;;;;14.28;54.40;99075.00;5316196;32;44331;-67
2022/11/17 15:21:08;;;;;;;;;;;;;;;13.97;55.61;99085.22;5330482;32;34270;-68
2022/11/17 15:24:10;;;;;;;;;;;;;;;13.44;56.94;99089.94;5316364;32;34372;-71
2022/11/17 15:27:13;;;;;;;;;;;;;;;14.30;54.45;99088.97;5320210;32;34380;-71
2022/11/17 15:30:15;;;;;;;;;;;;;;;14.43;53.88;99084.44;5332456;32;34403;-68
2022/11/17 15:33:17;;;;;;;;;;;;;;;13.58;56.26;99090.75;5317036;32;35757;-70
2022/11/17 15:36:20;;;;;;;;;;;;;;;12.92;58.36;99098.84;5325954;32;33872;-75
2022/11/17 15:39:22;;;;;;;;;;;;;;;12.73;59.40;99093.16;5320099;32;34524;-76
2022/11/17 15:42:24;;;;;;;;;;;;;;;13.64;57.38;99074.47;5337885;32;34374;-75
2022/11/17 15:45:26;;;;;;;;;;;;;;;14.06;55.54;99091.63;5327597;32;35480;-69
2022/11/17 15:48:29;;;;;;;;;;;;;;;13.71;56.47;99081.00;5323964;32;34138;-68
2022/11/17 15:51:31;;;;;;;;;;;;;;;12.44;60.44;99077.53;5335666;32;34965;-75
2022/11/17 15:54:33;;;;;;;;;;;;;;;12.58;60.21;99083.66;5326615;32;35501;-75
2022/11/17 15:57:35;;;;;;;;;;;;;;;13.70;56.97;99077.50;5329862;32;43578;-70
2022/11/17 16:00:39;;;;;;;;;;;;;;;13.12;58.81;99067.59;5309915;32;35961;-76
2022/11/17 16:03:42;;;;;;;;;;;;;;;13.54;57.65;99074.31;5329058;32;35466;-69
2022/11/17 16:06:44;;;;;;;;;;;;;;;12.81;59.63;99077.66;5300691;32;32006;-70
2022/11/17 16:09:47;;;;;;;;;;;;;;;12.23;61.90;99068.41;5301531;32;35015;-70
2022/11/17 16:12:51;;;;;;;;;;;;;;;12.77;60.25;99057.75;5341925;32;35338;-76
2022/11/17 16:15:53;;;;;;;;;;;;;;;13.52;58.07;99061.22;5323347;32;34920;-69
2022/11/17 16:18:55;;;;;;;;;;;;;;;13.84;56.73;99060.66;5328037;32;35192;-77
2022/11/17 16:21:57;;;;;;;;;;;;;;;13.54;57.75;99059.31;5321713;32;35287;-76
2022/11/17 16:24:59;;;;;;;;;;;;;;;13.79;57.39;99062.81;5343223;32;35141;-76
2022/11/17 16:28:01;;;;;;;;;;;;;;;12.83;60.73;99053.84;5326299;32;34707;-69